sensor_id;sensor_type;location;lat;lon;timestamp;noise_LAeq;noise_LA_min;noise_LA_max;noise_LA01;noise_LA95
43385;Laerm;28988;48.042;7.584;2023-04-01T00:00:18;90.13;-16.02;98.60;;
43385;Laerm;28988;48.042;7.584;2023-04-01T00:02:44;90.13;-14.85;98.60;;
43385;Laerm;28988;48.042;7.584;2023-04-01T00:05:10;90.12;-21.54;98.66;;
43385;Laerm;28988;48.042;7.584;2023-04-01T00:07:36;90.13;-24.87;98.60;;
43385;Laerm;28988;48.042;7.584;2023-04-01T00:10:02;90.13;-14.66;98.60;;
43385;Laerm;28988;48.042;7.584;2023-04-01T00:12:27;90.13;-14.66;98.60;;
43385;Laerm;28988;48.042;7.584;2023-04-01T00:14:52;90.13;-14.66;98.60;;
43385;Laerm;28988;48.042;7.584;2023-04-01T00:17:17;90.13;-14.85;98.60;;
43385;Laerm;28988;48.042;7.584;2023-04-01T00:19:43;90.12;-14.85;98.60;;
43385;Laerm;28988;48.042;7.584;2023-04-01T00:22:08;90.13;-14.85;98.60;;
43385;Laerm;28988;48.042;7.584;2023-04-01T00:24:36;90.13;-14.85;98.60;;
43385;Laerm;28988;48.042;7.584;2023-04-01T00:27:01;90.13;-16.02;98.60;;
43385;Laerm;28988;48.042;7.584;2023-04-01T00:29:26;90.13;-15.68;98.60;;
43385;Laerm;28988;48.042;7.584;2023-04-01T00:31:54;90.13;-14.66;98.60;;
43385;Laerm;28988;48.042;7.584;2023-04-01T00:34:19;90.13;-14.66;98.60;;
43385;Laerm;28988;48.042;7.584;2023-04-01T00:36:45;90.13;-14.66;98.60;;
43385;Laerm;28988;48.042;7.584;2023-04-01T00:39:10;90.13;-14.66;98.60;;
43385;Laerm;28988;48.042;7.584;2023-04-01T00:41:35;90.12;-15.33;98.60;;
43385;Laerm;28988;48.042;7.584;2023-04-01T00:44:17;90.13;-14.66;98.60;;
43385;Laerm;28988;48.042;7.584;2023-04-01T00:46:43;90.13;-14.85;98.60;;
43385;Laerm;28988;48.042;7.584;2023-04-01T00:49:08;92.94;-37.25;105.19;;
43385;Laerm;28988;48.042;7.584;2023-04-01T00:51:34;85.30;-20.54;97.09;;
43385;Laerm;28988;48.042;7.584;2023-04-01T00:54:01;84.21;-33.10;93.31;;
43385;Laerm;28988;48.042;7.584;2023-04-01T00:56:32;84.19;-22.68;94.26;;
43385;Laerm;28988;48.042;7.584;2023-04-01T00:59:04;84.16;-33.10;93.80;;
43385;Laerm;28988;48.042;7.584;2023-04-01T01:01:33;84.15;-20.71;93.30;;
43385;Laerm;28988;48.042;7.584;2023-04-01T01:03:59;84.15;-20.71;93.13;;
43385;Laerm;28988;48.042;7.584;2023-04-01T01:09:03;84.15;-20.71;93.60;;
43385;Laerm;28988;48.042;7.584;2023-04-01T01:14:22;84.13;-20.71;93.48;;
43385;Laerm;28988;48.042;7.584;2023-04-01T01:16:52;84.14;-57.14;93.45;;
43385;Laerm;28988;48.042;7.584;2023-04-01T01:24:59;84.16;-20.71;93.91;;
43385;Laerm;28988;48.042;7.584;2023-04-01T01:27:34;84.17;-57.68;93.97;;
43385;Laerm;28988;48.042;7.584;2023-04-01T01:32:53;84.29;-33.10;95.18;;
43385;Laerm;28988;48.042;7.584;2023-04-01T01:35:40;84.37;-39.78;95.57;;
43385;Laerm;28988;48.042;7.584;2023-04-01T01:38:09;85.11;-34.52;96.18;;
43385;Laerm;28988;48.042;7.584;2023-04-01T01:40:36;90.37;-13.95;101.64;;
43385;Laerm;28988;48.042;7.584;2023-04-01T01:43:05;95.54;-46.02;103.52;;
43385;Laerm;28988;48.042;7.584;2023-04-01T01:45:32;100.57;-13.44;105.51;;
43385;Laerm;28988;48.042;7.584;2023-04-01T01:47:58;99.12;-47.96;104.79;;
43385;Laerm;28988;48.042;7.584;2023-04-01T01:50:24;97.24;-9.56;103.60;;
43385;Laerm;28988;48.042;7.584;2023-04-01T01:52:51;95.82;-19.21;102.07;;
43385;Laerm;28988;48.042;7.584;2023-04-01T01:55:33;95.95;-7.59;102.25;;
43385;Laerm;28988;48.042;7.584;2023-04-01T01:57:59;96.07;-24.87;102.28;;
43385;Laerm;28988;48.042;7.584;2023-04-01T02:00:25;95.31;-30.67;101.82;;
43385;Laerm;28988;48.042;7.584;2023-04-01T02:02:51;95.65;-43.25;102.56;;
43385;Laerm;28988;48.042;7.584;2023-04-01T02:05:18;95.18;-24.91;102.07;;
43385;Laerm;28988;48.042;7.584;2023-04-01T02:07:46;94.85;-20.79;101.75;;
43385;Laerm;28988;48.042;7.584;2023-04-01T02:10:13;95.24;-29.99;101.90;;
43385;Laerm;28988;48.042;7.584;2023-04-01T02:12:39;96.55;-28.24;102.29;;
43385;Laerm;28988;48.042;7.584;2023-04-01T02:15:10;97.20;-29.69;102.92;;
43385;Laerm;28988;48.042;7.584;2023-04-01T02:17:38;93.80;-28.87;101.77;;
43385;Laerm;28988;48.042;7.584;2023-04-01T02:22:31;95.45;-18.33;101.85;;
43385;Laerm;28988;48.042;7.584;2023-04-01T02:25:01;95.73;-25.28;102.00;;
43385;Laerm;28988;48.042;7.584;2023-04-01T02:27:27;94.09;-43.30;101.39;;
43385;Laerm;28988;48.042;7.584;2023-04-01T02:29:53;92.67;-37.57;100.85;;
43385;Laerm;28988;48.042;7.584;2023-04-01T02:32:18;92.73;-20.20;100.89;;
43385;Laerm;28988;48.042;7.584;2023-04-01T02:34:44;92.06;-39.49;100.51;;
43385;Laerm;28988;48.042;7.584;2023-04-01T02:37:10;91.52;-39.44;99.98;;
43385;Laerm;28988;48.042;7.584;2023-04-01T02:39:35;91.44;-24.93;100.21;;
43385;Laerm;28988;48.042;7.584;2023-04-01T02:42:01;91.38;-17.98;100.39;;
43385;Laerm;28988;48.042;7.584;2023-04-01T02:44:26;91.15;-22.23;99.69;;
43385;Laerm;28988;48.042;7.584;2023-04-01T02:46:51;95.85;-37.01;105.44;;
43385;Laerm;28988;48.042;7.584;2023-04-01T02:49:17;88.12;-21.48;101.06;;
43385;Laerm;28988;48.042;7.584;2023-04-01T02:51:43;93.77;-29.26;103.43;;
43385;Laerm;28988;48.042;7.584;2023-04-01T02:54:08;99.37;-20.16;105.53;;
43385;Laerm;28988;48.042;7.584;2023-04-01T02:56:33;100.27;-21.51;105.67;;
43385;Laerm;28988;48.042;7.584;2023-04-01T02:58:58;98.48;-22.70;105.68;;
43385;Laerm;28988;48.042;7.584;2023-04-01T03:01:23;96.28;-37.40;105.29;;
43385;Laerm;28988;48.042;7.584;2023-04-01T03:03:49;92.86;-39.89;103.03;;
43385;Laerm;28988;48.042;7.584;2023-04-01T03:06:14;87.11;-26.42;99.31;;
43385;Laerm;28988;48.042;7.584;2023-04-01T03:08:40;84.67;-57.68;96.55;;
43385;Laerm;28988;48.042;7.584;2023-04-01T03:11:06;84.29;-24.69;94.87;;
43385;Laerm;28988;48.042;7.584;2023-04-01T03:13:31;84.25;-22.68;94.45;;
43385;Laerm;28988;48.042;7.584;2023-04-01T03:15:57;84.26;-23.73;94.17;;
43385;Laerm;28988;48.042;7.584;2023-04-01T03:18:22;84.29;-27.54;95.02;;
43385;Laerm;28988;48.042;7.584;2023-04-01T03:20:47;84.32;-23.73;95.73;;
43385;Laerm;28988;48.042;7.584;2023-04-01T03:23:13;84.95;-42.80;95.71;;
43385;Laerm;28988;48.042;7.584;2023-04-01T03:25:38;91.83;-33.76;102.46;;
43385;Laerm;28988;48.042;7.584;2023-04-01T03:28:03;99.16;-26.56;105.18;;
43385;Laerm;28988;48.042;7.584;2023-04-01T03:30:28;99.39;-25.06;105.56;;
43385;Laerm;28988;48.042;7.584;2023-04-01T03:32:56;94.50;-21.61;102.21;;
43385;Laerm;28988;48.042;7.584;2023-04-01T03:35:21;92.58;-39.70;101.16;;
43385;Laerm;28988;48.042;7.584;2023-04-01T03:37:46;92.81;-38.31;101.02;;
43385;Laerm;28988;48.042;7.584;2023-04-01T03:40:11;93.15;-43.87;101.22;;
43385;Laerm;28988;48.042;7.584;2023-04-01T03:42:37;93.31;-39.59;101.20;;
43385;Laerm;28988;48.042;7.584;2023-04-01T03:45:03;94.13;-28.77;101.39;;
43385;Laerm;28988;48.042;7.584;2023-04-01T03:47:28;94.13;-16.23;101.55;;
43385;Laerm;28988;48.042;7.584;2023-04-01T03:49:54;93.03;-41.92;101.38;;
43385;Laerm;28988;48.042;7.584;2023-04-01T03:52:19;91.90;-28.34;100.52;;
43385;Laerm;28988;48.042;7.584;2023-04-01T03:54:44;90.75;-14.96;99.78;;
43385;Laerm;28988;48.042;7.584;2023-04-01T03:57:09;90.34;-32.19;99.13;;
43385;Laerm;28988;48.042;7.584;2023-04-01T03:59:34;90.21;-58.67;99.23;;
43385;Laerm;28988;48.042;7.584;2023-04-01T04:02:00;90.18;-22.37;99.05;;
43385;Laerm;28988;48.042;7.584;2023-04-01T04:04:26;90.18;-19.49;99.00;;
43385;Laerm;28988;48.042;7.584;2023-04-01T04:06:51;90.18;-50.79;99.04;;
43385;Laerm;28988;48.042;7.584;2023-04-01T04:09:16;90.19;-38.35;99.01;;
43385;Laerm;28988;48.042;7.584;2023-04-01T04:11:41;90.17;-20.21;98.94;;
43385;Laerm;28988;48.042;7.584;2023-04-01T04:14:06;90.17;-55.00;98.95;;
43385;Laerm;28988;48.042;7.584;2023-04-01T04:16:33;90.17;-20.24;99.05;;
43385;Laerm;28988;48.042;7.584;2023-04-01T04:18:59;90.20;-22.69;99.00;;
43385;Laerm;28988;48.042;7.584;2023-04-01T04:21:24;90.24;-44.06;99.19;;
43385;Laerm;28988;48.042;7.584;2023-04-01T04:23:49;90.27;-24.56;99.18;;
43385;Laerm;28988;48.042;7.584;2023-04-01T04:26:16;90.33;-33.80;99.12;;
43385;Laerm;28988;48.042;7.584;2023-04-01T04:28:41;90.35;-23.74;99.57;;
43385;Laerm;28988;48.042;7.584;2023-04-01T04:31:06;90.36;-21.26;99.25;;
43385;Laerm;28988;48.042;7.584;2023-04-01T04:33:33;90.41;-28.61;99.24;;
43385;Laerm;28988;48.042;7.584;2023-04-01T04:35:58;90.36;-23.90;99.63;;
43385;Laerm;28988;48.042;7.584;2023-04-01T04:38:23;90.30;-25.74;99.19;;
43385;Laerm;28988;48.042;7.584;2023-04-01T04:40:48;90.28;-58.67;99.20;;
43385;Laerm;28988;48.042;7.584;2023-04-01T04:43:14;90.38;-25.50;99.51;;
43385;Laerm;28988;48.042;7.584;2023-04-01T04:45:40;97.33;-32.48;105.43;;
43385;Laerm;28988;48.042;7.584;2023-04-01T04:48:09;95.28;-34.76;102.27;;
43385;Laerm;28988;48.042;7.584;2023-04-01T04:50:35;97.18;-21.93;103.80;;
43385;Laerm;28988;48.042;7.584;2023-04-01T04:53:00;98.88;-18.18;103.76;;
43385;Laerm;28988;48.042;7.584;2023-04-01T04:55:25;99.86;-33.28;105.06;;
43385;Laerm;28988;48.042;7.584;2023-04-01T04:57:51;101.30;-39.07;105.74;;
43385;Laerm;28988;48.042;7.584;2023-04-01T05:00:16;101.38;-33.04;106.01;;
43385;Laerm;28988;48.042;7.584;2023-04-01T05:02:41;101.37;-16.21;105.82;;
43385;Laerm;28988;48.042;7.584;2023-04-01T05:05:06;99.88;-21.96;105.54;;
43385;Laerm;28988;48.042;7.584;2023-04-01T05:07:32;98.50;-45.71;104.84;;
43385;Laerm;28988;48.042;7.584;2023-04-01T05:09:58;98.52;-13.68;103.50;;
43385;Laerm;28988;48.042;7.584;2023-04-01T05:12:23;99.51;-21.19;104.65;;
43385;Laerm;28988;48.042;7.584;2023-04-01T05:14:48;100.59;-32.27;105.28;;
43385;Laerm;28988;48.042;7.584;2023-04-01T05:17:13;97.79;-28.65;105.00;;
43385;Laerm;28988;48.042;7.584;2023-04-01T05:19:38;99.00;-70.61;104.57;;
43385;Laerm;28988;48.042;7.584;2023-04-01T05:22:04;98.41;-30.90;105.40;;
43385;Laerm;28988;48.042;7.584;2023-04-01T05:24:30;90.62;-22.62;101.03;;
43385;Laerm;28988;48.042;7.584;2023-04-01T05:26:55;89.65;-44.45;100.91;;
43385;Laerm;28988;48.042;7.584;2023-04-01T05:29:21;88.12;-15.37;98.92;;
43385;Laerm;28988;48.042;7.584;2023-04-01T05:31:46;85.28;-27.45;96.31;;
43385;Laerm;28988;48.042;7.584;2023-04-01T05:34:11;84.64;-39.78;95.95;;
43385;Laerm;28988;48.042;7.584;2023-04-01T05:36:36;84.54;-31.32;95.85;;
43385;Laerm;28988;48.042;7.584;2023-04-01T05:39:01;84.56;-34.16;95.58;;
43385;Laerm;28988;48.042;7.584;2023-04-01T05:41:27;85.19;-37.77;95.66;;
43385;Laerm;28988;48.042;7.584;2023-04-01T05:43:52;87.33;-29.24;98.00;;
43385;Laerm;28988;48.042;7.584;2023-04-01T05:46:17;91.09;-40.84;102.06;;
43385;Laerm;28988;48.042;7.584;2023-04-01T05:48:43;99.29;-14.61;105.38;;
43385;Laerm;28988;48.042;7.584;2023-04-01T05:51:12;92.10;-35.28;100.83;;
43385;Laerm;28988;48.042;7.584;2023-04-01T05:53:37;90.19;-21.54;99.10;;
43385;Laerm;28988;48.042;7.584;2023-04-01T05:56:03;90.14;-22.78;98.71;;
43385;Laerm;28988;48.042;7.584;2023-04-01T05:58:28;90.13;-14.66;98.71;;
43385;Laerm;28988;48.042;7.584;2023-04-01T06:00:59;90.13;-15.86;98.60;;
43385;Laerm;28988;48.042;7.584;2023-04-01T06:03:24;90.13;-44.06;98.60;;
43385;Laerm;28988;48.042;7.584;2023-04-01T06:05:50;90.13;-5.91;98.71;;
43385;Laerm;28988;48.042;7.584;2023-04-01T06:08:16;90.13;-27.45;98.76;;
43385;Laerm;28988;48.042;7.584;2023-04-01T06:10:51;90.13;-5.89;98.60;;
43385;Laerm;28988;48.042;7.584;2023-04-01T06:13:22;90.14;-21.54;98.76;;
43385;Laerm;28988;48.042;7.584;2023-04-01T06:15:53;90.13;-21.26;98.62;;
43385;Laerm;28988;48.042;7.584;2023-04-01T06:28:29;90.14;-21.54;98.66;;
43385;Laerm;28988;48.042;7.584;2023-04-01T06:36:06;90.13;-20.23;98.64;;
43385;Laerm;28988;48.042;7.584;2023-04-01T06:38:38;90.14;-15.08;98.75;;
43385;Laerm;28988;48.042;7.584;2023-04-01T06:44:05;90.14;-53.05;98.81;;
43385;Laerm;28988;48.042;7.584;2023-04-01T06:49:02;90.14;-14.85;98.76;;
43385;Laerm;28988;48.042;7.584;2023-04-01T06:56:30;90.14;-25.92;98.81;;
43385;Laerm;28988;48.042;7.584;2023-04-01T06:58:58;90.14;-21.22;98.86;;
43385;Laerm;28988;48.042;7.584;2023-04-01T07:01:35;90.14;-19.95;98.89;;
43385;Laerm;28988;48.042;7.584;2023-04-01T07:04:06;90.14;-19.01;98.71;;
43385;Laerm;28988;48.042;7.584;2023-04-01T07:06:45;90.13;-21.54;98.81;;
43385;Laerm;28988;48.042;7.584;2023-04-01T07:09:12;90.14;-55.00;98.91;;
43385;Laerm;28988;48.042;7.584;2023-04-01T07:11:40;90.15;-24.73;98.84;;
43385;Laerm;28988;48.042;7.584;2023-04-01T07:14:12;90.15;-29.72;98.80;;
43385;Laerm;28988;48.042;7.584;2023-04-01T07:16:41;90.15;-14.34;98.97;;
43385;Laerm;28988;48.042;7.584;2023-04-01T07:19:21;90.14;-20.15;98.79;;
43385;Laerm;28988;48.042;7.584;2023-04-01T07:21:51;90.15;-20.23;98.98;;
43385;Laerm;28988;48.042;7.584;2023-04-01T07:24:21;90.15;-21.22;98.82;;
43385;Laerm;28988;48.042;7.584;2023-04-01T07:26:47;90.15;-20.23;98.88;;
43385;Laerm;28988;48.042;7.584;2023-04-01T07:29:13;90.15;-16.02;98.73;;
43385;Laerm;28988;48.042;7.584;2023-04-01T07:47:01;90.16;-52.70;99.01;;
43385;Laerm;28988;48.042;7.584;2023-04-01T07:52:11;90.17;-25.68;98.97;;
43385;Laerm;28988;48.042;7.584;2023-04-01T07:54:46;90.18;-27.99;98.98;;
43385;Laerm;28988;48.042;7.584;2023-04-01T08:08:00;90.21;-33.09;99.29;;
43385;Laerm;28988;48.042;7.584;2023-04-01T08:15:32;90.21;-29.68;98.86;;
43385;Laerm;28988;48.042;7.584;2023-04-01T08:18:07;90.22;-42.89;99.04;;
43385;Laerm;28988;48.042;7.584;2023-04-01T08:20:47;90.24;-22.86;99.03;;
43385;Laerm;28988;48.042;7.584;2023-04-01T08:23:14;90.25;-47.02;99.28;;
43385;Laerm;28988;48.042;7.584;2023-04-01T08:25:46;90.27;-35.95;99.22;;
43385;Laerm;28988;48.042;7.584;2023-04-01T08:28:15;90.29;-47.02;98.91;;
43385;Laerm;28988;48.042;7.584;2023-04-01T08:33:15;90.33;-22.64;99.09;;
43385;Laerm;28988;48.042;7.584;2023-04-01T08:35:56;90.34;-50.36;99.17;;
43385;Laerm;28988;48.042;7.584;2023-04-01T08:38:31;90.34;-26.52;99.30;;
43385;Laerm;28988;48.042;7.584;2023-04-01T08:43:59;90.44;-29.13;99.51;;
43385;Laerm;28988;48.042;7.584;2023-04-01T08:49:16;90.60;-45.62;99.56;;
43385;Laerm;28988;48.042;7.584;2023-04-01T08:56:55;91.05;-44.61;99.90;;
43385;Laerm;28988;48.042;7.584;2023-04-01T09:04:41;91.72;-24.95;100.20;;
43385;Laerm;28988;48.042;7.584;2023-04-01T09:09:53;91.95;-20.96;100.14;;
43385;Laerm;28988;48.042;7.584;2023-04-01T09:17:38;92.49;-40.49;100.58;;
43385;Laerm;28988;48.042;7.584;2023-04-01T09:25:23;97.91;-40.81;103.37;;
43385;Laerm;28988;48.042;7.584;2023-04-01T09:28:05;99.22;-34.41;104.11;;
43385;Laerm;28988;48.042;7.584;2023-04-01T09:30:37;99.47;-24.19;104.74;;
43385;Laerm;28988;48.042;7.584;2023-04-01T09:36:04;100.01;-25.99;104.72;;
43385;Laerm;28988;48.042;7.584;2023-04-01T09:46:45;100.87;-17.44;104.92;;
43385;Laerm;28988;48.042;7.584;2023-04-01T10:00:18;101.08;-10.44;105.45;;
43385;Laerm;28988;48.042;7.584;2023-04-01T10:08:00;100.89;-32.37;105.57;;
43385;Laerm;28988;48.042;7.584;2023-04-01T10:10:39;100.70;-17.51;105.64;;
43385;Laerm;28988;48.042;7.584;2023-04-01T10:16:06;100.31;-30.69;105.79;;
43385;Laerm;28988;48.042;7.584;2023-04-01T10:21:36;100.90;-25.97;105.65;;
43385;Laerm;28988;48.042;7.584;2023-04-01T10:26:55;101.15;-22.73;105.38;;
43385;Laerm;28988;48.042;7.584;2023-04-01T10:37:40;101.18;-19.62;105.32;;
43385;Laerm;28988;48.042;7.584;2023-04-01T10:50:49;100.40;-23.47;104.74;;
43385;Laerm;28988;48.042;7.584;2023-04-01T10:55:50;99.57;-25.10;104.44;;
43385;Laerm;28988;48.042;7.584;2023-04-01T10:58:39;99.19;-51.19;104.44;;
43385;Laerm;28988;48.042;7.584;2023-04-01T11:04:29;100.36;-14.36;104.80;;
43385;Laerm;28988;48.042;7.584;2023-04-01T11:20:21;100.19;-12.37;104.60;;
43385;Laerm;28988;48.042;7.584;2023-04-01T11:22:52;100.07;-43.24;104.71;;
43385;Laerm;28988;48.042;7.584;2023-04-01T11:25:29;99.94;-18.00;104.58;;
43385;Laerm;28988;48.042;7.584;2023-04-01T11:33:22;99.31;-13.74;104.28;;
43385;Laerm;28988;48.042;7.584;2023-04-01T11:35:55;99.55;-23.42;104.33;;
43385;Laerm;28988;48.042;7.584;2023-04-01T11:43:45;100.70;-17.54;104.78;;
43385;Laerm;28988;48.042;7.584;2023-04-01T11:46:15;100.57;-55.11;104.87;;
43385;Laerm;28988;48.042;7.584;2023-04-01T11:48:50;100.57;-34.40;104.92;;
43385;Laerm;28988;48.042;7.584;2023-04-01T11:59:12;100.46;-24.49;105.48;;
43385;Laerm;28988;48.042;7.584;2023-04-01T12:04:11;98.41;-35.38;105.00;;
43385;Laerm;28988;48.042;7.584;2023-04-01T12:07:06;97.95;-20.13;104.91;;
43385;Laerm;28988;48.042;7.584;2023-04-01T12:22:41;99.16;-19.75;105.50;;
43385;Laerm;28988;48.042;7.584;2023-04-01T12:25:05;99.26;-23.25;105.47;;
43385;Laerm;28988;48.042;7.584;2023-04-01T12:27:39;99.29;-23.59;105.26;;
43385;Laerm;28988;48.042;7.584;2023-04-01T12:40:31;97.90;-32.59;104.72;;
43385;Laerm;28988;48.042;7.584;2023-04-01T12:45:39;96.15;-25.30;104.11;;
43385;Laerm;28988;48.042;7.584;2023-04-01T12:48:19;96.15;-19.45;104.10;;
43385;Laerm;28988;48.042;7.584;2023-04-01T12:53:30;96.46;-18.25;105.16;;
43385;Laerm;28988;48.042;7.584;2023-04-01T12:56:02;96.60;-17.64;104.36;;
43385;Laerm;28988;48.042;7.584;2023-04-01T12:58:36;96.34;-23.86;103.93;;
43385;Laerm;28988;48.042;7.584;2023-04-01T13:01:27;95.99;-36.59;103.98;;
43385;Laerm;28988;48.042;7.584;2023-04-01T13:06:24;94.78;-24.03;103.75;;
43385;Laerm;28988;48.042;7.584;2023-04-01T13:19:38;95.56;-36.17;103.87;;
43385;Laerm;28988;48.042;7.584;2023-04-01T13:27:11;95.23;-18.59;104.21;;
43385;Laerm;28988;48.042;7.584;2023-04-01T13:29:57;95.14;-48.19;103.58;;
43385;Laerm;28988;48.042;7.584;2023-04-01T13:32:29;94.81;-34.75;103.54;;
43385;Laerm;28988;48.042;7.584;2023-04-01T13:42:34;92.96;-33.27;102.96;;
43385;Laerm;28988;48.042;7.584;2023-04-01T13:45:09;92.01;-37.80;102.89;;
43385;Laerm;28988;48.042;7.584;2023-04-01T13:48:23;91.12;-31.54;103.09;;
43385;Laerm;28988;48.042;7.584;2023-04-01T14:03:30;88.12;-30.70;98.72;;
43385;Laerm;28988;48.042;7.584;2023-04-01T14:08:48;86.95;-34.71;98.19;;
43385;Laerm;28988;48.042;7.584;2023-04-01T14:19:31;85.26;-46.35;97.40;;
43385;Laerm;28988;48.042;7.584;2023-04-01T14:24:47;85.06;-37.26;96.02;;
43385;Laerm;28988;48.042;7.584;2023-04-01T14:27:30;84.97;-28.44;97.00;;
43385;Laerm;28988;48.042;7.584;2023-04-01T14:32:49;84.77;-43.56;96.06;;
43385;Laerm;28988;48.042;7.584;2023-04-01T14:35:37;84.67;-32.96;95.92;;
43385;Laerm;28988;48.042;7.584;2023-04-01T14:43:35;84.42;-28.48;95.70;;
43385;Laerm;28988;48.042;7.584;2023-04-01T14:48:32;84.37;-57.68;95.73;;
43385;Laerm;28988;48.042;7.584;2023-04-01T14:51:10;84.38;-23.73;96.57;;
43385;Laerm;28988;48.042;7.584;2023-04-01T14:53:42;84.34;-20.54;96.03;;
43385;Laerm;28988;48.042;7.584;2023-04-01T14:56:11;84.36;-57.68;95.39;;
43385;Laerm;28988;48.042;7.584;2023-04-01T15:06:18;84.34;-31.46;95.40;;
43385;Laerm;28988;48.042;7.584;2023-04-01T15:13:53;84.53;-22.63;96.04;;
43385;Laerm;28988;48.042;7.584;2023-04-01T15:16:39;85.23;-27.03;97.74;;
43385;Laerm;28988;48.042;7.584;2023-04-01T15:24:22;89.42;-29.77;100.20;;
43385;Laerm;28988;48.042;7.584;2023-04-01T15:32:24;95.64;-30.47;104.32;;
43385;Laerm;28988;48.042;7.584;2023-04-01T15:35:19;99.09;-14.59;105.38;;
43385;Laerm;28988;48.042;7.584;2023-04-01T15:37:43;98.82;-31.50;105.20;;
43385;Laerm;28988;48.042;7.584;2023-04-01T15:43:03;91.43;-28.83;99.71;;
43385;Laerm;28988;48.042;7.584;2023-04-01T15:48:02;100.98;-26.35;105.33;;
43385;Laerm;28988;48.042;7.584;2023-04-01T15:55:44;90.92;-30.67;99.62;;
43385;Laerm;28988;48.042;7.584;2023-04-01T16:00:49;90.36;-26.49;99.36;;
43385;Laerm;28988;48.042;7.584;2023-04-01T16:03:18;90.42;-40.43;99.36;;
43385;Laerm;28988;48.042;7.584;2023-04-01T16:11:09;92.47;-41.96;100.69;;
43385;Laerm;28988;48.042;7.584;2023-04-01T16:13:52;93.63;-44.10;100.94;;
43385;Laerm;28988;48.042;7.584;2023-04-01T16:18:51;97.63;-22.37;102.94;;
43385;Laerm;28988;48.042;7.584;2023-04-01T16:24:02;99.41;-49.85;104.11;;
43385;Laerm;28988;48.042;7.584;2023-04-01T16:26:36;99.61;-54.38;104.24;;
43385;Laerm;28988;48.042;7.584;2023-04-01T16:29:17;99.65;-16.71;104.55;;
43385;Laerm;28988;48.042;7.584;2023-04-01T16:34:16;98.90;-26.28;103.86;;
43385;Laerm;28988;48.042;7.584;2023-04-01T16:36:45;98.70;-35.98;103.82;;
43385;Laerm;28988;48.042;7.584;2023-04-01T16:39:22;98.54;-22.69;103.76;;
43385;Laerm;28988;48.042;7.584;2023-04-01T16:44:23;99.43;-21.80;104.48;;
43385;Laerm;28988;48.042;7.584;2023-04-01T16:49:58;100.32;-23.44;104.55;;
43385;Laerm;28988;48.042;7.584;2023-04-01T16:54:40;101.07;-19.68;105.05;;
43385;Laerm;28988;48.042;7.584;2023-04-01T16:59:34;100.74;-22.86;105.43;;
43385;Laerm;28988;48.042;7.584;2023-04-01T17:04:43;98.82;-24.29;105.17;;
43385;Laerm;28988;48.042;7.584;2023-04-01T17:07:25;97.77;-22.36;105.18;;
43385;Laerm;28988;48.042;7.584;2023-04-01T17:15:01;97.70;-22.84;104.70;;
43385;Laerm;28988;48.042;7.584;2023-04-01T17:20:12;99.92;-24.34;105.48;;
43385;Laerm;28988;48.042;7.584;2023-04-01T17:22:44;100.75;-14.96;105.57;;
43385;Laerm;28988;48.042;7.584;2023-04-01T17:27:54;101.26;-32.06;105.23;;
43385;Laerm;28988;48.042;7.584;2023-04-01T17:30:24;100.89;-21.45;104.91;;
43385;Laerm;28988;48.042;7.584;2023-04-01T17:33:03;100.29;-21.62;104.76;;
43385;Laerm;28988;48.042;7.584;2023-04-01T17:45:37;94.41;-20.06;101.09;;
43385;Laerm;28988;48.042;7.584;2023-04-01T17:53:26;91.48;-29.95;100.26;;
43385;Laerm;28988;48.042;7.584;2023-04-01T17:56:08;90.96;-22.53;99.59;;
43385;Laerm;28988;48.042;7.584;2023-04-01T18:19:20;90.20;-44.18;99.08;;
43385;Laerm;28988;48.042;7.584;2023-04-01T18:21:55;90.19;-53.81;99.11;;
43385;Laerm;28988;48.042;7.584;2023-04-01T18:24:28;90.18;-55.00;98.79;;
43385;Laerm;28988;48.042;7.584;2023-04-01T18:29:37;90.15;-27.96;98.95;;
43385;Laerm;28988;48.042;7.584;2023-04-01T18:32:11;90.15;-21.54;99.00;;
43385;Laerm;28988;48.042;7.584;2023-04-01T18:34:43;90.15;-21.54;98.85;;
43385;Laerm;28988;48.042;7.584;2023-04-01T18:37:19;90.15;-21.26;98.97;;
43385;Laerm;28988;48.042;7.584;2023-04-01T18:39:52;90.15;-22.71;98.85;;
43385;Laerm;28988;48.042;7.584;2023-04-01T18:47:44;90.14;-20.22;98.80;;
43385;Laerm;28988;48.042;7.584;2023-04-01T18:52:47;90.14;-21.54;98.89;;
43385;Laerm;28988;48.042;7.584;2023-04-01T18:55:22;90.14;-22.78;98.81;;
43385;Laerm;28988;48.042;7.584;2023-04-01T19:00:22;90.15;-16.02;98.85;;
43385;Laerm;28988;48.042;7.584;2023-04-01T19:05:29;90.14;-32.14;98.81;;
43385;Laerm;28988;48.042;7.584;2023-04-01T19:07:56;90.14;-19.28;98.76;;
43385;Laerm;28988;48.042;7.584;2023-04-01T19:11:00;90.14;-37.56;98.81;;
43385;Laerm;28988;48.042;7.584;2023-04-01T19:18:34;90.14;-44.06;98.66;;
43385;Laerm;28988;48.042;7.584;2023-04-01T19:21:02;90.14;-20.67;98.90;;
43385;Laerm;28988;48.042;7.584;2023-04-01T19:23:39;90.14;-16.02;98.84;;
43385;Laerm;28988;48.042;7.584;2023-04-01T19:26:29;90.14;-14.34;98.85;;
43385;Laerm;28988;48.042;7.584;2023-04-01T19:37:02;90.13;-31.39;98.70;;
43385;Laerm;28988;48.042;7.584;2023-04-01T19:39:42;90.13;-26.35;98.83;;
43385;Laerm;28988;48.042;7.584;2023-04-01T19:44:42;90.13;-16.02;98.79;;
43385;Laerm;28988;48.042;7.584;2023-04-01T19:47:16;90.13;-17.93;98.71;;
43385;Laerm;28988;48.042;7.584;2023-04-01T20:05:39;90.13;-20.67;98.75;;
43385;Laerm;28988;48.042;7.584;2023-04-01T20:08:09;90.13;-18.38;98.60;;
43385;Laerm;28988;48.042;7.584;2023-04-01T20:13:06;90.13;-19.53;98.71;;
43385;Laerm;28988;48.042;7.584;2023-04-01T20:18:03;90.13;-16.02;98.60;;
43385;Laerm;28988;48.042;7.584;2023-04-01T20:20:30;90.13;-19.21;98.72;;
43385;Laerm;28988;48.042;7.584;2023-04-01T20:25:50;90.13;-31.67;98.76;;
43385;Laerm;28988;48.042;7.584;2023-04-01T20:36:06;90.13;-14.85;98.81;;
43385;Laerm;28988;48.042;7.584;2023-04-01T20:38:46;90.13;-18.41;98.66;;
43385;Laerm;28988;48.042;7.584;2023-04-01T20:41:23;90.13;-14.66;98.71;;
43385;Laerm;28988;48.042;7.584;2023-04-01T20:43:56;90.13;-16.46;98.71;;
43385;Laerm;28988;48.042;7.584;2023-04-01T20:51:23;90.13;-21.22;98.71;;
43385;Laerm;28988;48.042;7.584;2023-04-01T20:54:11;90.13;-24.31;98.71;;
43385;Laerm;28988;48.042;7.584;2023-04-01T20:56:47;90.14;-18.00;98.71;;
43385;Laerm;28988;48.042;7.584;2023-04-01T20:59:41;90.13;-25.12;98.75;;
43385;Laerm;28988;48.042;7.584;2023-04-01T21:02:16;90.13;-44.06;98.66;;
43385;Laerm;28988;48.042;7.584;2023-04-01T21:07:20;90.14;-22.78;98.76;;
43385;Laerm;28988;48.042;7.584;2023-04-01T21:09:53;90.14;-36.30;98.66;;
43385;Laerm;28988;48.042;7.584;2023-04-01T21:12:23;90.14;-51.69;98.76;;
43385;Laerm;28988;48.042;7.584;2023-04-01T21:20:07;90.14;-14.85;98.76;;
43385;Laerm;28988;48.042;7.584;2023-04-01T21:35:43;90.14;-24.59;98.93;;
43385;Laerm;28988;48.042;7.584;2023-04-01T21:56:29;90.14;-18.14;98.81;;
43385;Laerm;28988;48.042;7.584;2023-04-01T22:01:40;90.13;-22.78;98.79;;
43385;Laerm;28988;48.042;7.584;2023-04-01T22:06:53;90.14;-29.68;98.75;;
43385;Laerm;28988;48.042;7.584;2023-04-01T22:09:28;90.14;-37.56;98.95;;
43385;Laerm;28988;48.042;7.584;2023-04-01T22:11:59;90.14;-20.67;98.83;;
43385;Laerm;28988;48.042;7.584;2023-04-01T22:14:42;90.28;-24.48;99.05;;
43385;Laerm;28988;48.042;7.584;2023-04-01T22:17:16;90.16;-17.77;98.97;;